createdAt,value
2018-10-06T00:01:42.006Z,98449.58
2018-10-06T00:04:12.050Z,98454.12
2018-10-06T00:06:41.759Z,98447.46
2018-10-06T00:09:10.869Z,98447.74
2018-10-06T00:12:48.911Z,98432.05
2018-10-06T00:15:17.949Z,98442.11
2018-10-06T00:17:47.668Z,98439.72
2018-10-06T00:20:17.914Z,98437.02
2018-10-06T00:22:47.910Z,98441.34
2018-10-06T00:25:18.780Z,98416.55
2018-10-06T00:27:48.010Z,98434.40
2018-10-06T00:30:17.547Z,98432.22
2018-10-06T00:32:46.570Z,98429.83
2018-10-06T00:35:14.421Z,98428.53
2018-10-06T00:37:42.524Z,98423.73
2018-10-06T00:40:11.019Z,98411.98
2018-10-06T00:42:39.719Z,98416.24
2018-10-06T00:45:08.493Z,98413.84
2018-10-06T00:47:37.685Z,98415.19
2018-10-06T00:50:06.313Z,98408.53
2018-10-06T00:52:34.542Z,98411.17
2018-10-06T00:55:03.145Z,98412.23
2018-10-06T00:57:31.874Z,98401.04
2018-10-06T01:00:01.934Z,98377.84
2018-10-06T01:02:31.770Z,98389.25
2018-10-06T01:05:00.954Z,98384.47
2018-10-06T01:07:30.010Z,98382.88
2018-10-06T01:09:58.765Z,98384.22
2018-10-06T01:12:28.613Z,98387.70
2018-10-06T01:14:57.839Z,98387.17
2018-10-06T01:17:56.029Z,98394.07
2018-10-06T01:21:31.930Z,98382.35
2018-10-06T01:24:01.229Z,98383.20
2018-10-06T01:26:30.759Z,98375.14
2018-10-06T01:28:59.950Z,98371.97
2018-10-06T01:31:29.568Z,98371.66
2018-10-06T01:33:58.916Z,98367.40
2018-10-06T01:36:28.590Z,98365.25
2018-10-06T01:38:59.737Z,98362.02
2018-10-06T01:41:30.866Z,98359.12
2018-10-06T01:44:00.902Z,98347.37
2018-10-06T01:46:30.798Z,98342.62
2018-10-06T01:49:01.046Z,98357.83
2018-10-06T01:51:30.813Z,98359.69
2018-10-06T01:54:00.578Z,98360.25
2018-10-06T01:56:29.950Z,98357.02
2018-10-06T01:58:59.061Z,98358.88
2018-10-06T02:01:29.145Z,98343.44
2018-10-06T02:03:58.761Z,98352.73
2018-10-06T02:06:27.995Z,98349.80
2018-10-06T02:08:56.856Z,98346.05
2018-10-06T02:11:26.939Z,98351.70
2018-10-06T02:13:57.602Z,98352.73
2018-10-06T02:16:26.862Z,98352.77
2018-10-06T02:18:55.914Z,98351.98
2018-10-06T02:21:25.635Z,98342.10
2018-10-06T02:23:56.979Z,98354.66
2018-10-06T02:26:26.616Z,98354.91
2018-10-06T02:28:54.921Z,98358.92
2018-10-06T02:34:15.902Z,98362.40
2018-10-06T02:36:44.665Z,98362.40
2018-10-06T02:39:15.043Z,98357.83
2018-10-06T02:41:44.622Z,98357.05
2018-10-06T02:44:14.905Z,98359.73
2018-10-06T02:46:44.171Z,98351.70
2018-10-06T02:49:16.855Z,98358.95
2018-10-06T02:51:45.939Z,98332.36
2018-10-06T02:54:18.871Z,98350.16
2018-10-06T02:56:51.583Z,98348.02
2018-10-06T02:59:20.765Z,98349.31
2018-10-06T03:01:49.946Z,98340.52
2018-10-06T03:04:19.975Z,98325.64
2018-10-06T03:06:49.729Z,98335.95
2018-10-06T03:09:19.212Z,98330.63
2018-10-06T03:11:48.708Z,98323.95
2018-10-06T03:14:17.894Z,98319.73
2018-10-06T03:16:48.717Z,98317.58
2018-10-06T03:19:19.485Z,98311.67
2018-10-06T03:24:36.782Z,98306.05
2018-10-06T03:27:05.945Z,98305.03
2018-10-06T03:29:34.950Z,98309.81
2018-10-06T03:32:04.161Z,98308.50
2018-10-06T03:34:33.780Z,98298.03
2018-10-06T03:37:02.949Z,98298.30
2018-10-06T03:39:33.042Z,98298.30
2018-10-06T03:42:02.654Z,98290.84
2018-10-06T03:44:32.570Z,98304.78
2018-10-06T03:47:02.782Z,98305.83
2018-10-06T03:49:31.826Z,98305.55
2018-10-06T03:52:00.982Z,98304.74
2018-10-06T03:54:29.899Z,98308.26
2018-10-06T03:56:58.618Z,98306.11
2018-10-06T03:59:27.876Z,98297.81
2018-10-06T04:01:58.240Z,98294.58
2018-10-06T04:07:07.570Z,98297.84
2018-10-06T04:09:36.004Z,98303.20
2018-10-06T04:12:06.632Z,98300.24
2018-10-06T04:14:35.686Z,98294.37
2018-10-06T04:17:06.818Z,98289.55
2018-10-06T04:19:36.185Z,98298.41
2018-10-06T04:22:04.798Z,98290.36
2018-10-06T04:24:33.958Z,98290.67
2018-10-06T04:27:03.624Z,98289.34
2018-10-06T04:29:32.746Z,98286.92
2018-10-06T04:32:02.722Z,98283.71
2018-10-06T04:34:31.909Z,98285.82
2018-10-06T04:37:02.556Z,98290.11
2018-10-06T04:39:31.881Z,98276.30
2018-10-06T04:42:01.174Z,98294.13
2018-10-06T04:44:29.864Z,98285.05
2018-10-06T04:46:59.779Z,98279.67
2018-10-06T04:49:30.217Z,98277.84
2018-10-06T04:51:59.630Z,98275.42
2018-10-06T04:54:28.802Z,98274.12
2018-10-06T04:56:57.990Z,98276.22
2018-10-06T04:59:27.568Z,98270.34
2018-10-06T05:01:55.778Z,98270.60
2018-10-06T05:04:25.730Z,98268.77
2018-10-06T05:06:54.911Z,98266.09
2018-10-06T05:09:24.994Z,98265.81
2018-10-06T05:11:54.999Z,98260.72
2018-10-06T05:14:24.758Z,98264.73
2018-10-06T05:16:54.177Z,98258.58
2018-10-06T05:19:23.618Z,98261.80
2018-10-06T05:21:52.751Z,98242.64
2018-10-06T05:24:21.794Z,98252.73
2018-10-06T05:26:50.850Z,98267.97
2018-10-06T05:29:20.177Z,98268.24
2018-10-06T05:31:49.587Z,98271.20
2018-10-06T05:34:17.854Z,98275.20
2018-10-06T05:36:46.891Z,98278.69
2018-10-06T05:39:16.185Z,98281.05
2018-10-06T05:41:44.878Z,98283.72
2018-10-06T05:44:14.921Z,98283.50
2018-10-06T05:46:45.014Z,98283.50
2018-10-06T05:49:17.082Z,98284.77
2018-10-06T05:51:46.774Z,98269.65
2018-10-06T05:54:15.814Z,98272.29
2018-10-06T05:56:45.072Z,98275.70
2018-10-06T05:59:14.677Z,98277.28
2018-10-06T06:01:43.747Z,98273.03
2018-10-06T06:04:12.791Z,98276.50
2018-10-06T06:06:42.172Z,98282.38
2018-10-06T06:09:11.855Z,98275.45
2018-10-06T06:11:41.636Z,98279.46
2018-10-06T06:14:11.990Z,98276.22
2018-10-06T06:16:44.061Z,98283.44
2018-10-06T06:19:14.602Z,98285.58
2018-10-06T06:21:45.196Z,98289.87
2018-10-06T06:24:13.789Z,98285.86
2018-10-06T06:26:43.563Z,98290.12
2018-10-06T06:29:12.953Z,98281.04
2018-10-06T06:34:13.625Z,98278.61
2018-10-06T06:36:42.822Z,98277.52
2018-10-06T06:39:13.775Z,98263.42
2018-10-06T06:41:43.742Z,98282.58
2018-10-06T06:44:13.662Z,98272.38
2018-10-06T06:46:41.998Z,98276.70
2018-10-06T06:49:12.681Z,98279.88
2018-10-06T06:51:41.850Z,98281.95
2018-10-06T06:54:10.972Z,98275.79
2018-10-06T06:56:40.839Z,98278.18
2018-10-06T06:59:12.978Z,98270.48
2018-10-06T07:01:42.753Z,98276.48
2018-10-06T07:04:12.637Z,98271.58
2018-10-06T07:06:42.434Z,98273.20
2018-10-06T07:09:10.810Z,98272.19
2018-10-06T07:11:40.705Z,98254.07
2018-10-06T07:14:12.002Z,98238.97
2018-10-06T07:16:41.630Z,98276.48
2018-10-06T07:19:11.742Z,98274.82
2018-10-06T07:21:40.901Z,98271.33
2018-10-06T07:24:10.826Z,98279.31
2018-10-06T07:26:40.216Z,98281.75
2018-10-06T07:29:09.876Z,98273.16
2018-10-06T07:31:39.176Z,98272.91
2018-10-06T07:34:07.915Z,98271.83
2018-10-06T07:36:37.788Z,98271.33
2018-10-06T07:39:08.922Z,98267.56
2018-10-06T07:44:29.749Z,98276.41
2018-10-06T07:46:59.003Z,98276.20
2018-10-06T07:50:10.709Z,98275.95
2018-10-06T07:52:41.016Z,98270.69
2018-10-06T07:55:10.898Z,98283.98
2018-10-06T07:57:40.825Z,98278.91
2018-10-06T08:00:11.683Z,98277.25
2018-10-06T08:02:41.930Z,98274.82
2018-10-06T08:05:11.936Z,98278.06
2018-10-06T08:07:41.183Z,98272.71
2018-10-06T08:10:11.774Z,98276.72
2018-10-06T08:12:43.046Z,98269.47
2018-10-06T08:15:15.810Z,98266.39
2018-10-06T08:17:45.871Z,98262.72
2018-10-06T08:20:15.552Z,98246.16
2018-10-06T08:22:44.943Z,98253.61
2018-10-06T08:25:14.955Z,98250.68
2018-10-06T08:27:45.954Z,98221.97
2018-10-06T08:30:16.871Z,98249.40
2018-10-06T08:32:50.949Z,98241.59
2018-10-06T08:35:22.199Z,98241.23
2018-10-06T08:37:52.011Z,98237.34
2018-10-06T08:41:26.903Z,98226.48
2018-10-06T08:43:58.419Z,98232.87
2018-10-06T08:47:53.949Z,98230.13
2018-10-06T08:50:25.989Z,98229.79
2018-10-06T08:52:55.033Z,98208.54
2018-10-06T08:55:25.982Z,98230.23
2018-10-06T08:57:54.974Z,98220.44
2018-10-06T09:00:24.990Z,98228.33
2018-10-06T09:02:57.290Z,98235.58
2018-10-06T09:05:27.090Z,98229.66
2018-10-06T09:07:57.038Z,98229.81
2018-10-06T09:10:28.051Z,98215.92
2018-10-06T09:13:00.914Z,98228.87
2018-10-06T09:15:30.955Z,98221.25
2018-10-06T09:18:01.013Z,98221.88
2018-10-06T09:20:31.574Z,98220.50
2018-10-06T09:23:01.665Z,98200.77
2018-10-06T09:25:30.580Z,98215.34
2018-10-06T09:28:00.958Z,98216.09
2018-10-06T09:30:30.877Z,98206.45
2018-10-06T09:33:04.014Z,98200.05
2018-10-06T09:35:33.641Z,98200.22
2018-10-06T09:38:05.942Z,98194.77
2018-10-06T09:40:35.897Z,98191.64
2018-10-06T09:43:05.890Z,98179.98
2018-10-06T09:46:01.952Z,98175.84
2018-10-06T09:48:31.885Z,98173.66
2018-10-06T09:51:01.768Z,98173.83
2018-10-06T09:53:30.886Z,98165.05
2018-10-06T09:56:00.849Z,98161.55
2018-10-06T09:58:34.037Z,98162.06
2018-10-06T10:01:09.015Z,98160.87
2018-10-06T10:03:43.177Z,98152.53
2018-10-06T10:07:06.840Z,98138.73
2018-10-06T10:09:35.860Z,98151.67
2018-10-06T10:12:06.947Z,98146.77
2018-10-06T10:14:39.184Z,98145.33
2018-10-06T10:17:10.103Z,98141.43
2018-10-06T10:19:39.889Z,98136.37
2018-10-06T10:22:09.369Z,98135.33
2018-10-06T10:27:27.786Z,98130.21
2018-10-06T10:29:57.653Z,98131.77
2018-10-06T10:32:26.958Z,98119.48
2018-10-06T10:34:56.787Z,98127.23
2018-10-06T10:37:26.747Z,98120.06
2018-10-06T10:39:58.950Z,98124.49
2018-10-06T10:42:28.850Z,98123.16
2018-10-06T10:44:57.838Z,98119.72
2018-10-06T10:47:28.639Z,98114.38
2018-10-06T10:50:55.062Z,98119.78
2018-10-06T10:53:24.910Z,98115.64
2018-10-06T10:55:55.662Z,98112.73
2018-10-06T10:58:25.499Z,98110.52
2018-10-06T11:00:55.813Z,98102.48
2018-10-06T11:03:27.480Z,98099.30
2018-10-06T11:05:56.971Z,98101.16
2018-10-06T11:08:59.051Z,98089.51
2018-10-06T11:11:29.637Z,98093.77
2018-10-06T11:13:58.854Z,98085.14
2018-10-06T11:16:27.717Z,98081.07
2018-10-06T11:18:56.816Z,98078.20
2018-10-06T11:23:56.746Z,98062.09
2018-10-06T11:26:27.909Z,98061.79
2018-10-06T11:28:57.958Z,98059.11
2018-10-06T11:31:27.928Z,98052.13
2018-10-06T11:33:57.905Z,98054.62
2018-10-06T11:36:27.951Z,98048.24
2018-10-06T11:38:58.173Z,98043.40
2018-10-06T11:41:28.070Z,98039.63
2018-10-06T11:43:57.925Z,98033.52
2018-10-06T11:46:27.929Z,98034.11
2018-10-06T11:49:00.201Z,98028.43
2018-10-06T11:51:30.974Z,98023.55
2018-10-06T11:54:00.954Z,98015.79
2018-10-06T11:56:29.968Z,98012.90
2018-10-06T11:58:59.929Z,98002.19
2018-10-06T12:01:29.963Z,98002.13
2018-10-06T12:03:59.917Z,98001.09
2018-10-06T12:06:30.007Z,97995.73
2018-10-06T12:08:59.929Z,97990.35
2018-10-06T12:11:29.929Z,97992.02
2018-10-06T12:14:00.814Z,97991.72
2018-10-06T12:16:30.791Z,97980.71
2018-10-06T12:19:02.883Z,97978.63
2018-10-06T12:21:32.894Z,97977.28
2018-10-06T12:24:02.942Z,97985.08
2018-10-06T12:29:02.002Z,97963.51
2018-10-06T12:31:31.937Z,97958.39
2018-10-06T12:34:01.974Z,97962.83
2018-10-06T12:36:31.951Z,97962.56
2018-10-06T12:39:01.990Z,97964.64
2018-10-06T12:41:32.001Z,97957.71
2018-10-06T12:44:02.982Z,97956.97
2018-10-06T12:46:34.574Z,97956.46
2018-10-06T12:50:03.987Z,97949.17
2018-10-06T12:52:33.814Z,97946.26
2018-10-06T12:55:02.989Z,97929.56
2018-10-06T12:57:32.986Z,97938.46
2018-10-06T13:00:04.805Z,97937.39
2018-10-06T13:02:34.950Z,97935.19
2018-10-06T13:05:04.979Z,97936.80
2018-10-06T13:07:34.992Z,97929.59
2018-10-06T13:10:04.855Z,97925.08
2018-10-06T13:12:35.014Z,97923.50
2018-10-06T13:15:04.921Z,97909.97
2018-10-06T13:17:34.941Z,97916.27
2018-10-06T13:22:11.946Z,97917.25
2018-10-06T13:24:40.965Z,97910.61
2018-10-06T13:27:10.990Z,97911.69
2018-10-06T13:29:42.063Z,97913.30
2018-10-06T13:34:37.862Z,97911.95
2018-10-06T13:37:07.826Z,97913.77
2018-10-06T13:39:37.982Z,97912.19
2018-10-06T13:42:08.741Z,97915.38
2018-10-06T13:44:38.937Z,97901.27
2018-10-06T13:47:09.916Z,97911.59
2018-10-06T13:49:40.000Z,97905.20
2018-10-06T13:52:09.994Z,97901.19
2018-10-06T13:54:39.986Z,97879.38
2018-10-06T13:57:09.979Z,97887.26
2018-10-06T13:59:39.967Z,97885.92
2018-10-06T14:02:10.973Z,97889.61
2018-10-06T14:04:41.380Z,97886.89
2018-10-06T14:07:11.531Z,97885.86
2018-10-06T14:09:39.856Z,97884.75
2018-10-06T14:12:10.597Z,97883.18
2018-10-06T14:14:39.882Z,97875.62
2018-10-06T14:17:09.966Z,97873.51
2018-10-06T14:19:39.915Z,97872.17
2018-10-06T14:22:10.815Z,97875.38
2018-10-06T14:24:40.071Z,97871.06
2018-10-06T14:27:10.821Z,97860.81
2018-10-06T14:29:40.649Z,97866.97
2018-10-06T14:32:10.222Z,97872.17
2018-10-06T14:34:39.798Z,97874.55
2018-10-06T14:37:10.693Z,97874.84
2018-10-06T14:39:39.635Z,97801.10
2018-10-06T14:42:09.942Z,97868.39
2018-10-06T14:44:38.787Z,97855.96
2018-10-06T14:47:08.713Z,97873.51
2018-10-06T14:49:37.955Z,97871.30
2018-10-06T14:52:07.761Z,97849.27
2018-10-06T14:54:36.964Z,97866.52
2018-10-06T14:57:06.766Z,97865.20
2018-10-06T14:59:36.596Z,97863.33
2018-10-06T15:02:06.661Z,97863.27
2018-10-06T15:04:37.445Z,97865.20
2018-10-06T15:07:06.035Z,97860.35
2018-10-06T15:09:35.830Z,97860.25
2018-10-06T15:12:04.985Z,97864.27
2018-10-06T15:14:34.881Z,97861.92
2018-10-06T15:17:03.947Z,97858.05
2018-10-06T15:19:38.022Z,97856.77
2018-10-06T15:24:03.722Z,97858.41
2018-10-06T15:26:34.000Z,97857.45
2018-10-06T15:29:03.912Z,97838.69
2018-10-06T15:31:33.903Z,97849.28
2018-10-06T15:34:04.535Z,97853.30
2018-10-06T15:36:33.932Z,97836.92
2018-10-06T15:39:03.934Z,97849.34
2018-10-06T15:41:33.624Z,97846.36
2018-10-06T15:44:03.037Z,97850.92
2018-10-06T15:46:31.839Z,97850.88
2018-10-06T15:49:00.593Z,97849.78
2018-10-06T15:51:29.994Z,97851.35
2018-10-06T15:53:59.674Z,97844.42
2018-10-06T15:56:28.777Z,97848.67
2018-10-06T15:58:59.171Z,97850.88
2018-10-06T16:01:28.894Z,97849.78
2018-10-06T16:03:57.866Z,97846.87
2018-10-06T16:06:28.031Z,97849.55
2018-10-06T16:08:59.759Z,97845.90
2018-10-06T16:11:28.953Z,97844.36
2018-10-06T16:13:58.619Z,97850.25
2018-10-06T16:16:27.761Z,97841.75
2018-10-06T16:18:57.468Z,97843.92
2018-10-06T16:21:26.064Z,97841.84
2018-10-06T16:23:54.979Z,97845.56
2018-10-06T16:26:24.751Z,97848.50
2018-10-06T16:28:53.894Z,97841.84
2018-10-06T16:31:23.221Z,97845.02
2018-10-06T16:33:51.835Z,97848.50
2018-10-06T16:36:20.537Z,97850.48
2018-10-06T16:38:50.790Z,97847.70
2018-10-06T16:41:20.346Z,97846.87
2018-10-06T16:43:52.782Z,97836.69
2018-10-06T16:46:21.970Z,97848.08
2018-10-06T16:48:51.733Z,97850.15
2018-10-06T16:51:22.084Z,97847.70
2018-10-06T16:54:30.878Z,97846.44
2018-10-06T16:57:00.629Z,97845.80
2018-10-06T16:59:30.214Z,97850.25
2018-10-06T17:02:01.225Z,97852.32
2018-10-06T17:07:14.574Z,97847.84
2018-10-06T17:09:42.869Z,97855.73
2018-10-06T17:12:12.224Z,97855.88
2018-10-06T17:14:41.669Z,97852.93
2018-10-06T17:17:10.774Z,97852.03
2018-10-06T17:19:39.926Z,97842.34
2018-10-06T17:23:06.777Z,97850.38
2018-10-06T17:25:36.188Z,97840.20
2018-10-06T17:28:06.557Z,97855.06
2018-10-06T17:30:34.781Z,97852.08
2018-10-06T17:33:03.810Z,97851.87
2018-10-06T17:35:33.193Z,97846.46
2018-10-06T17:38:01.830Z,97848.38
2018-10-06T17:40:31.164Z,97847.70
2018-10-06T17:42:59.874Z,97846.22
2018-10-06T17:45:29.762Z,97846.00
2018-10-06T17:50:15.723Z,97845.39
2018-10-06T17:52:43.778Z,97846.13
2018-10-06T17:55:13.720Z,97842.95
2018-10-06T17:57:42.831Z,97846.73
2018-10-06T18:00:12.208Z,97844.35
2018-10-06T18:02:41.609Z,97845.42
2018-10-06T18:07:06.070Z,97847.33
2018-10-06T18:09:33.998Z,97846.23
2018-10-06T18:12:01.750Z,97841.61
2018-10-06T18:14:29.629Z,97843.82
2018-10-06T18:16:57.546Z,97849.65
2018-10-06T18:19:25.574Z,97845.59
2018-10-06T18:21:52.751Z,97848.31
2018-10-06T18:24:20.714Z,97849.05
2018-10-06T18:26:48.540Z,97852.83
2018-10-06T18:29:16.437Z,97854.41
2018-10-06T18:31:44.194Z,97853.36
2018-10-06T18:34:11.746Z,97850.95
2018-10-06T18:36:39.594Z,97854.70
2018-10-06T18:39:07.538Z,97859.76
2018-10-06T18:41:34.673Z,97855.73
2018-10-06T18:44:02.566Z,97859.28
2018-10-06T18:46:30.272Z,97863.54
2018-10-06T18:48:57.928Z,97861.16
2018-10-06T18:51:25.846Z,97862.73
2018-10-06T18:53:53.655Z,97864.64
2018-10-06T18:56:21.524Z,97858.28
2018-10-06T18:58:50.909Z,97866.07
2018-10-06T19:01:20.617Z,97854.49
2018-10-06T19:03:49.920Z,97863.17
2018-10-06T19:06:19.626Z,97856.58
2018-10-06T19:08:48.804Z,97814.27
2018-10-06T19:11:18.626Z,97867.85
2018-10-06T19:13:47.806Z,97869.42
2018-10-06T19:16:17.110Z,97870.53
2018-10-06T19:18:46.635Z,97870.03
2018-10-06T19:21:17.762Z,97877.88
2018-10-06T19:23:47.165Z,97872.53
2018-10-06T19:26:16.603Z,97880.56
2018-10-06T19:28:44.599Z,97872.27
2018-10-06T19:31:13.734Z,97857.99
2018-10-06T19:33:42.830Z,97879.70
2018-10-06T19:36:11.967Z,97885.29
2018-10-06T19:38:41.762Z,97877.32
2018-10-06T19:41:10.823Z,97883.65
2018-10-06T19:44:37.880Z,97887.37
2018-10-06T19:47:08.062Z,97882.52
2018-10-06T19:50:59.530Z,97887.50
2018-10-06T19:53:27.201Z,97888.03
2018-10-06T19:55:55.302Z,97891.45
2018-10-06T19:58:23.045Z,97890.41
2018-10-06T20:00:50.749Z,97887.50
2018-10-06T20:03:19.583Z,97895.45
2018-10-06T20:05:47.581Z,97899.87
2018-10-06T20:08:15.001Z,97901.20
2018-10-06T20:10:42.838Z,97898.77
2018-10-06T20:13:10.681Z,97903.48
2018-10-06T20:15:38.387Z,97905.06
2018-10-06T20:18:06.302Z,97907.50
2018-10-06T20:20:34.046Z,97905.52
2018-10-06T20:23:01.414Z,97910.94
2018-10-06T20:25:29.954Z,97906.25
2018-10-06T20:27:57.449Z,97909.67
2018-10-06T20:30:25.826Z,97912.59
2018-10-06T20:32:55.585Z,97909.48
2018-10-06T20:35:23.777Z,97912.55
2018-10-06T20:37:51.606Z,97915.27
2018-10-06T20:40:22.031Z,97912.48
2018-10-06T20:42:50.878Z,97906.86
2018-10-06T20:45:20.076Z,97912.48
2018-10-06T20:47:49.652Z,97900.28
2018-10-06T20:50:18.779Z,97920.52
2018-10-06T20:52:48.623Z,97916.23
2018-10-06T20:55:17.818Z,97903.44
2018-10-06T20:57:48.613Z,97916.55
2018-10-06T21:00:17.743Z,97919.25
2018-10-06T21:02:46.833Z,97924.64
2018-10-06T21:05:16.209Z,97920.39
2018-10-06T21:07:44.771Z,97923.57
2018-10-06T21:10:14.201Z,97919.55
2018-10-06T21:12:43.774Z,97923.30
2018-10-06T21:15:13.177Z,97921.37
2018-10-06T21:17:42.806Z,97917.52
2018-10-06T21:20:12.779Z,97921.37
2018-10-06T21:22:42.054Z,97903.34
2018-10-06T21:25:10.850Z,97911.98
2018-10-06T21:27:40.694Z,97916.01
2018-10-06T21:30:10.745Z,97917.65
2018-10-06T21:32:40.478Z,97919.28
2018-10-06T21:35:09.837Z,97918.52
2018-10-06T21:37:39.775Z,97915.84
2018-10-06T21:40:09.502Z,97917.20
2018-10-06T21:42:38.845Z,97914.29
2018-10-06T21:45:08.598Z,97915.16
2018-10-06T21:47:37.854Z,97915.63
2018-10-06T21:50:06.939Z,97911.02
2018-10-06T21:52:35.854Z,97906.80
2018-10-06T21:55:05.826Z,97908.94
2018-10-06T21:57:35.211Z,97911.38
2018-10-06T22:00:04.909Z,97895.77
2018-10-06T22:02:34.754Z,97908.94
2018-10-06T22:07:06.590Z,97902.60
2018-10-06T22:09:33.961Z,97901.77
2018-10-06T22:12:01.722Z,97901.56
2018-10-06T22:14:30.194Z,97896.44
2018-10-06T22:16:58.204Z,97889.21
2018-10-06T22:19:26.049Z,97887.03
2018-10-06T22:21:54.014Z,97890.85
2018-10-06T22:24:22.206Z,97887.67
2018-10-06T22:26:50.044Z,97891.09
2018-10-06T22:29:17.557Z,97894.12
2018-10-06T22:31:45.197Z,97888.47
2018-10-06T22:34:13.088Z,97889.21
2018-10-06T22:36:41.414Z,97892.48
2018-10-06T22:39:09.765Z,97887.94
2018-10-06T22:41:37.929Z,97885.56
2018-10-06T22:44:05.811Z,97890.31
2018-10-06T22:46:33.614Z,97888.17
2018-10-06T22:49:01.458Z,97883.95
2018-10-06T22:51:29.220Z,97882.61
2018-10-06T22:53:57.193Z,97881.04
2018-10-06T22:56:24.946Z,97883.41
2018-10-06T22:58:52.327Z,97874.64
2018-10-06T23:01:20.176Z,97873.87
2018-10-06T23:03:48.212Z,97870.86
2018-10-06T23:06:16.015Z,97876.78
2018-10-06T23:08:43.889Z,97878.48
2018-10-06T23:11:11.717Z,97868.47
2018-10-06T23:13:39.545Z,97877.92
2018-10-06T23:16:07.517Z,97876.34
2018-10-06T23:18:35.382Z,97876.58
2018-10-06T23:21:02.597Z,97876.88
2018-10-06T23:23:30.457Z,97877.38
2018-10-06T23:25:57.750Z,97882.50
2018-10-06T23:28:25.561Z,97878.78
2018-10-06T23:30:54.894Z,97877.68
2018-10-06T23:33:24.638Z,97871.79
2018-10-06T23:35:53.950Z,97881.76
2018-10-06T23:41:02.590Z,97878.81
2018-10-06T23:43:29.998Z,97874.06
2018-10-06T23:45:59.910Z,97873.82
2018-10-06T23:48:29.921Z,97887.11
2018-10-06T23:50:59.902Z,97873.44
2018-10-06T23:53:29.907Z,97883.94
2018-10-06T23:55:59.845Z,97883.09
2018-10-06T23:58:28.833Z,97883.43
